Flight Track Log - Related Links

Times and Time Zones

All times are in EDT time to prevent confusion due to time zone crossing. See the N8558W flight status page for this flight to view local times or setup timezone preferences in your user account.

Time Position Orientation Groundspeed Altitude Reporting Facility
EDT Latitude Longitude Course Direction KTS MPH feet Rate Location/Type
Wed 10:22:24 AM 29.1661 -97.8244 19° North 131 151 5,500  Level Houston Center
Wed 10:23:23 AM 29.2028 -97.8128 16° North 136 157 5,600 150 Climbing Houston Center
Wed 10:24:24 AM 29.2439 -97.8028 12° North 140 161 5,800 95 Climbing Houston Center
Wed 10:25:29 AM 29.2806 -97.7939 12° North 136 157 5,800 -47 Level Houston Center
Wed 10:26:31 AM 29.3200 -97.7872 North 137 158 5,700 -48 Descending Houston Center
Wed 10:27:00 AM 29.8157 -98.3447 19° North  Level FlightAware Approximate
Wed 10:27:33 AM 29.3592 -97.7800 North 139 160 5,700  Level Houston Center
Wed 10:28:35 AM 29.3967 -97.7714 11° North 139 160 5,700  Level Houston Center
Wed 10:29:38 AM 29.4433 -97.7592 13° North 139 160 5,700  Level Houston Center
Wed 10:30:40 AM 29.4817 -97.7481 14° North 139 160 5,700  Level Houston Center
Wed 10:31:42 AM 29.5175 -97.7358 17° North 139 160 5,700 -48 Level Houston Center
Wed 10:32:44 AM 29.5542 -97.7228 17° North 139 160 5,600  Descending Houston Center
Wed 10:33:46 AM 29.5931 -97.7131 12° North 139 160 5,700 48 Climbing Houston Center
Wed 10:34:48 AM 29.6306 -97.7033 13° North 139 160 5,700 -48 Level Houston Center
Wed 10:35:51 AM 29.6758 -97.6944 10° North 139 160 5,600  Descending Houston Center
Wed 10:36:53 AM 29.7133 -97.6872 North 139 160 5,700 48 Climbing Houston Center
Wed 10:37:55 AM 29.7503 -97.6819 North 137 158 5,700 48 Level Houston Center
Wed 10:38:57 AM 29.7881 -97.6758 North 137 158 5,800  Climbing Houston Center
Wed 10:39:59 AM 29.8300 -97.6694 North 136 157 5,700  Descending Houston Center
Wed 10:41:01 AM 29.8700 -97.6603 11° North 137 158 5,800 48 Climbing Houston Center
Wed 10:42:04 AM 29.9083 -97.6522 10° North 136 157 5,800  Level Houston Center
Wed 10:43:06 AM 29.9494 -97.6439 10° North 137 158 5,800 -97 Level Houston Center
Wed 10:44:08 AM 29.9886 -97.6358 10° North 140 161 5,600 -194 Descending Houston Center
Wed 10:45:10 AM 30.0314 -97.6292 North 144 166 5,400 -97 Descending Houston Center
Wed 10:46:12 AM 30.0631 -97.6208 13° North 141 162 5,400  Level Houston Center
Wed 10:47:14 AM 30.1019 -97.6142 North 139 160 5,400 48 Level Houston Center
Wed 10:48:17 AM 30.1461 -97.6036 12° North 138 159 5,500 48 Climbing Houston Center
Wed 10:49:19 AM 30.1817 -97.5928 15° North 135 155 5,500  Level Houston Center
Wed 10:50:21 AM 30.2192 -97.5844 11° North 135 155 5,500 48 Level Houston Center
Wed 10:51:23 AM 30.2575 -97.5778 North 136 157 5,600  Climbing Houston Center
Wed 10:52:25 AM 30.2958 -97.5736 North 136 157 5,500 -48 Descending Houston Center
Wed 10:53:27 AM 30.3411 -97.5644 10° North 136 157 5,500  Level Houston Center
Wed 10:54:30 AM 30.3792 -97.5583 North 136 157 5,500  Level Houston Center
Wed 10:55:32 AM 30.4169 -97.5494 11° North 136 157 5,500  Level Houston Center
Wed 10:56:34 AM 30.4547 -97.5442 North 136 157 5,500  Level Houston Center
Wed 10:57:36 AM 30.4928 -97.5400 North 137 158 5,500  Level Houston Center
Wed 10:58:38 AM 30.5311 -97.5356 North 137 158 5,500  Level Houston Center
Wed 10:59:40 AM 30.5756 -97.5286 North 137 158 5,500  Level Houston Center
Wed 11:00:42 AM 30.6128 -97.5244 North 136 157 5,500  Level Houston Center
Wed 11:01:45 AM 30.6511 -97.5178 North 136 157 5,500  Level Houston Center
Wed 11:02:47 AM 30.6897 -97.5114 North 137 158 5,500  Level Houston Center
Wed 11:03:49 AM 30.7281 -97.5044 North 137 158 5,500  Level Houston Center
Wed 11:04:51 AM 30.7647 -97.4936 14° North 137 158 5,500  Level Houston Center
Wed 11:05:53 AM 30.8083 -97.4847 10° North 137 158 5,500  Level Houston Center
Wed 11:06:55 AM 30.8458 -97.4753 12° North 136 157 5,500  Level Houston Center
Wed 11:07:58 AM 30.8831 -97.4656 13° North 136 157 5,500  Level Houston Center
Wed 11:08:36 AM 30.9056 -97.4614 North 137 158 5,500  Level Fort Worth Center
Wed 11:09:33 AM 30.9456 -97.4592 North 138 159 5,500  Level Fort Worth Center
Wed 11:10:27 AM 30.9806 -97.4531 North 137 158 5,500  Level Fort Worth Center
Wed 11:10:40 AM 30.9825 -97.4525 14° North 137 158 5,500  Level Fort Worth Center
Wed 11:11:34 AM 31.0219 -97.4464 North 136 157 5,500  Level Fort Worth Center
Wed 11:12:45 AM 31.0661 -97.4358 12° North 137 158 5,500  Level Fort Worth Center
Wed 11:13:35 AM 31.0978 -97.4286 11° North 140 161 5,500  Level Fort Worth Center
Wed 11:13:47 AM 31.1044 -97.4272 10° North 137 158 5,500  Level Fort Worth Center
Wed 11:14:36 AM 31.1369 -97.4197 11° North 138 159 5,500  Level Fort Worth Center
Wed 11:14:49 AM 31.1419 -97.4183 13° North 137 158 5,500  Level Fort Worth Center
Wed 11:15:42 AM 31.1761 -97.4131 North 137 158 5,500  Level Fort Worth Center
Wed 11:16:37 AM 31.2133 -97.4067 North 138 159 5,500  Level Fort Worth Center
Wed 11:16:53 AM 31.2178 -97.4047 21° North 137 158 5,500  Level Fort Worth Center
Wed 11:17:56 AM 31.2553 -97.4003 North 137 158 5,500 -55 Level Fort Worth Center
Wed 11:18:43 AM 31.2953 -97.3981 North 143 165 5,400 -97 Descending Fort Worth Center
Wed 11:18:58 AM 31.3033 -97.3967 North 138 159 5,400 78 Level Fort Worth Center
Wed 11:20:00 AM 31.3417 -97.3886 10° North 138 159 5,500 48 Climbing Fort Worth Center
Wed 11:21:02 AM 31.3789 -97.3806 10° North 138 159 5,500 -48 Level Fort Worth Center
Wed 11:22:04 AM 31.4164 -97.3714 12° North 137 158 5,400 -59 Descending Fort Worth Center
Wed 11:22:44 AM 31.4431 -97.3650 12° North 138 159 5,400  Level Fort Worth Center
Wed 11:23:07 AM 31.4550 -97.3619 12° North 139 160 5,400 -71 Level Fort Worth Center
Wed 11:24:09 AM 31.5003 -97.3558 North 139 160 5,300 -48 Descending Fort Worth Center
Wed 11:25:11 AM 31.5383 -97.3456 13° North 139 160 5,300 48 Level Fort Worth Center
Wed 11:26:13 AM 31.5753 -97.3353 13° North 139 160 5,400 65 Climbing Fort Worth Center
Wed 11:26:44 AM 31.5956 -97.3336 North 137 158 5,400  Level Fort Worth Center
Wed 11:27:15 AM 31.6131 -97.3278 16° North 139 160 5,400 65 Level Fort Worth Center
Wed 11:28:17 AM 31.6511 -97.3214 North 139 160 5,500 48 Climbing Fort Worth Center
Wed 11:29:19 AM 31.6897 -97.3175 North 139 160 5,500  Level Fort Worth Center
Wed 11:30:22 AM 31.7339 -97.2992 19° North 139 160 5,500  Level Fort Worth Center
Wed 11:30:45 AM 31.7489 -97.2919 22° Northeast 140 161 5,500  Level Fort Worth Center
Wed 11:31:24 AM 31.7714 -97.2836 17° North 139 160 5,500 -59 Level Fort Worth Center
Wed 11:32:26 AM 31.8094 -97.2725 14° North 140 161 5,400 -48 Descending Fort Worth Center
Wed 11:33:28 AM 31.8472 -97.2614 14° North 140 161 5,400  Level Fort Worth Center
Wed 11:34:30 AM 31.8858 -97.2492 15° North 140 161 5,400 -78 Level Fort Worth Center
Wed 11:34:45 AM 31.9000 -97.2481 North 141 162 5,300 -97 Descending Fort Worth Center
Wed 11:35:32 AM 31.9250 -97.2436 North 140 161 5,300 109 Level Fort Worth Center
Wed 11:36:35 AM 31.9711 -97.2336 10° North 141 162 5,500 96 Climbing Fort Worth Center
Wed 11:37:37 AM 32.0122 -97.2275 North 139 160 5,500  Level Fort Worth Center
Wed 11:38:39 AM 32.0519 -97.2239 North 143 165 5,500 -48 Level Fort Worth Center
Wed 11:39:41 AM 32.0944 -97.2169 North 143 165 5,400 -97 Descending Fort Worth Center
Wed 11:40:43 AM 32.1350 -97.2036 16° North 148 170 5,300 -97 Descending Fort Worth Center
Wed 11:41:45 AM 32.1772 -97.1889 16° North 147 169 5,200 -144 Descending Fort Worth Center
Wed 11:42:48 AM 32.2117 -97.1769 16° North 147 169 5,000 -336 Descending Fort Worth Center
Wed 11:43:50 AM 32.2619 -97.1608 15° North 151 174 4,500 -435 Descending Fort Worth Center
Wed 11:44:52 AM 32.3050 -97.1517 10° North 154 177 4,100 -339 Descending Fort Worth Center
Wed 11:45:54 AM 32.3514 -97.1492 North 154 177 3,800 -339 Descending Fort Worth Center
Wed 11:46:56 AM 32.3936 -97.1444 North 153 176 3,400 -387 Descending Fort Worth Center
Wed 11:47:58 AM 32.4353 -97.1344 11° North 153 176 3,000 -384 Descending Fort Worth Center
Wed 11:49:01 AM 32.4783 -97.1236 12° North 151 174 2,600 -240 Descending Fort Worth Center
Wed 11:50:03 AM 32.5144 -97.1167 North 138 159 2,500 -48 Descending Fort Worth Center
Wed 11:51:05 AM 32.5536 -97.1047 14° North 136 157 2,500  Level Fort Worth Center
Wed 11:52:07 AM 32.5919 -97.1094 354° North 139 160 2,500 -145 Level Fort Worth Center
Wed 11:53:09 AM 32.6336 -97.1142 355° North 139 160 2,200 -435 Descending Fort Worth Center
Wed 11:54:11 AM 32.6697 -97.1208 351° North 134 154 1,600 -480 Descending Fort Worth Center
Wed 11:55:14 AM 32.6903 -97.1056 32° Northeast 99 114 1,200 -336 Descending Fort Worth Center
Wed 11:56:16 AM 32.6694 -97.0969 161° South 92 106 900 -290 Descending Fort Worth Center

Login

Don't have an account? Register now (free) for customized features, flight alerts, and more!